Time,TemperatureF,DewpointF,PressureIn,WindDirection,WindDirectionDegrees,WindSpeedMPH,WindSpeedGustMPH,Humidity,HourlyPrecipIn,Conditions,Clouds,dailyrainin,SoftwareType,DateUTC
2013-10-09 00:01:00,64.2,63.3,30.05,SW,225,24.2,24.2,97,0.09,-RA,,0.00,WeatherDisplay:10.37,2013-10-09 04:01:00,
2013-10-09 00:02:00,64.2,63.3,30.05,ESE,112,23.0,23.0,97,0.08,-RA,,0.00,WeatherDisplay:10.37,2013-10-09 04:02:00,
2013-10-09 00:07:00,64.2,63.3,30.02,NW,315,17.3,17.3,97,0.07,-RA,,0.01,WeatherDisplay:10.37,2013-10-09 04:07:00,
2013-10-09 00:12:00,64.2,63.3,30.02,East,90,21.8,21.8,97,0.06,-RA,,0.01,WeatherDisplay:10.37,2013-10-09 04:12:00,
2013-10-09 00:17:00,64.2,63.3,30.03,NNW,338,27.6,27.6,97,0.05,-RA,,0.01,WeatherDisplay:10.37,2013-10-09 04:17:00,
2013-10-09 00:22:00,64.0,63.1,30.03,NW,315,19.6,19.6,97,0.05,-RA,,0.01,WeatherDisplay:10.37,2013-10-09 04:22:00,
2013-10-09 00:27:00,63.9,63.0,30.04,East,90,12.7,12.7,97,0.06,-RA,,0.03,WeatherDisplay:10.37,2013-10-09 04:27:00,
2013-10-09 00:32:00,63.9,63.0,30.04,NW,315,19.6,19.6,97,0.11,-RA,,0.08,WeatherDisplay:10.37,2013-10-09 04:32:00,
2013-10-09 00:37:00,63.7,62.8,30.04,North,360,13.8,13.8,97,0.14,-RA,,0.12,WeatherDisplay:10.37,2013-10-09 04:37:00,
2013-10-09 00:42:00,63.7,62.8,30.03,WNW,292,18.4,18.4,97,0.18,-RA,,0.15,WeatherDisplay:10.37,2013-10-09 04:42:00,
2013-10-09 00:47:00,63.5,62.6,30.03,West,270,15.0,15.0,97,0.23,-RA,,0.20,WeatherDisplay:10.37,2013-10-09 04:47:00,
2013-10-09 00:52:00,63.3,62.4,30.03,NNW,338,15.0,15.0,97,0.26,-RA,,0.24,WeatherDisplay:10.37,2013-10-09 04:52:00,
2013-10-09 00:57:00,63.3,62.4,30.03,SSW,202,24.2,24.2,97,0.30,-RA,,0.30,WeatherDisplay:10.37,2013-10-09 04:57:00,
2013-10-09 01:02:00,63.1,62.2,30.03,NNE,22,19.6,19.6,97,0.32,-RA,,0.32,WeatherDisplay:10.37,2013-10-09 05:02:00,
2013-10-09 01:07:00,63.0,62.1,30.03,NE,45,15.0,15.0,97,0.33,-RA,,0.34,WeatherDisplay:10.37,2013-10-09 05:07:00,
2013-10-09 01:12:00,62.8,61.9,30.03,NNW,338,11.5,11.5,97,0.37, +RA,,0.38,WeatherDisplay:10.37,2013-10-09 05:12:00,
2013-10-09 01:17:00,62.8,61.9,30.03,NE,45,15.0,15.0,97,0.41, +RA,,0.42,WeatherDisplay:10.37,2013-10-09 05:17:00,
2013-10-09 01:22:00,62.8,61.9,30.03,NW,315,16.4,16.4,97,0.43, +RA,,0.45,WeatherDisplay:10.37,2013-10-09 05:22:00,
2013-10-09 01:27:00,62.6,61.7,30.03,East,90,13.8,13.8,97,0.45, +RA,,0.48,WeatherDisplay:10.37,2013-10-09 05:27:00,
2013-10-09 01:32:00,62.6,61.7,30.01,North,360,11.5,11.5,97,0.42, +RA,,0.50,WeatherDisplay:10.37,2013-10-09 05:32:00,
2013-10-09 01:37:00,62.6,61.7,30.01,NNW,338,13.7,13.7,97,0.41, +RA,,0.53,WeatherDisplay:10.37,2013-10-09 05:37:00,
2013-10-09 01:42:00,62.4,61.8,30.03,WNW,292,24.2,24.2,98,0.39, +RA,,0.55,WeatherDisplay:10.37,2013-10-09 05:42:00,
2013-10-09 01:47:00,62.4,61.8,30.03,ESE,112,11.9,11.9,98,0.36, +RA,,0.56,WeatherDisplay:10.37,2013-10-09 05:47:00,
2013-10-09 01:52:00,62.4,61.8,30.01,NNW,338,21.9,21.9,98,0.33, +RA,,0.57,WeatherDisplay:10.37,2013-10-09 05:52:00,
2013-10-09 01:57:00,62.4,61.8,30.01,SSE,158,15.5,15.5,98,0.28, +RA,,0.57,WeatherDisplay:10.37,2013-10-09 05:57:00,
2013-10-09 02:02:00,62.4,61.8,30.01,ENE,68,9.2,9.2,98,0.26, +RA,,0.58,WeatherDisplay:10.37,2013-10-09 06:02:00,
2013-10-09 02:07:00,62.4,61.8,30.01,ENE,68,19.6,19.6,98,0.24, +RA,,0.58,WeatherDisplay:10.37,2013-10-09 06:07:00,
2013-10-09 02:12:00,62.4,61.8,30.02,NNE,22,12.8,12.8,98,0.23,RA,,0.61,WeatherDisplay:10.37,2013-10-09 06:12:00,
2013-10-09 02:17:00,62.4,61.8,30.01,East,90,18.4,18.4,98,0.23,RA,,0.65,WeatherDisplay:10.37,2013-10-09 06:17:00,
2013-10-09 02:22:00,62.4,61.8,30.01,West,270,25.3,25.3,98,0.22,RA,,0.67,WeatherDisplay:10.37,2013-10-09 06:22:00,
2013-10-09 02:27:00,62.4,61.8,30.00,East,90,13.8,13.8,98,0.21,RA,,0.69,WeatherDisplay:10.37,2013-10-09 06:27:00,
2013-10-09 02:32:00,62.4,61.8,30.02,West,270,19.6,19.6,98,0.21,RA,,0.72,WeatherDisplay:10.37,2013-10-09 06:32:00,
2013-10-09 02:37:00,62.4,61.8,30.02,ENE,68,15.0,15.0,98,0.22,RA,,0.76,WeatherDisplay:10.37,2013-10-09 06:37:00,
2013-10-09 02:42:00,62.4,61.8,30.00,NNW,338,12.7,12.7,98,0.25, +RA,,0.79,WeatherDisplay:10.37,2013-10-09 06:42:00,
2013-10-09 02:47:00,62.4,61.8,30.00,North,360,15.0,15.0,98,0.24, +RA,,0.81,WeatherDisplay:10.37,2013-10-09 06:47:00,
2013-10-09 02:52:00,62.4,61.8,30.00,WNW,292,15.0,15.0,98,0.25, +RA,,0.82,WeatherDisplay:10.37,2013-10-09 06:52:00,
2013-10-09 02:57:00,62.4,61.8,30.00,NW,315,16.1,16.1,98,0.26, +RA,,0.83,WeatherDisplay:10.37,2013-10-09 06:57:00,
2013-10-09 03:02:00,62.4,61.8,29.99,WNW,292,19.1,19.1,98,0.26, +RA,,0.85,WeatherDisplay:10.37,2013-10-09 07:02:00,
2013-10-09 03:07:00,62.6,62.0,29.99,WNW,292,16.1,16.1,98,0.28, +RA,,0.86,WeatherDisplay:10.37,2013-10-09 07:07:00,
2013-10-09 03:12:00,62.6,62.0,29.99,NNE,22,13.8,13.8,98,0.27, +RA,,0.87,WeatherDisplay:10.37,2013-10-09 07:12:00,
2013-10-09 03:17:00,62.6,62.0,29.99,South,180,13.8,13.8,98,0.24, +RA,,0.89,WeatherDisplay:10.37,2013-10-09 07:17:00,
2013-10-09 03:22:00,62.6,62.0,29.98,NNW,338,19.6,19.6,98,0.24,RA,,0.90,WeatherDisplay:10.37,2013-10-09 07:22:00,
2013-10-09 03:27:00,62.6,62.0,29.97,ESE,112,20.0,20.0,98,0.23,RA,,0.91,WeatherDisplay:10.37,2013-10-09 07:27:00,
2013-10-09 03:32:00,62.6,62.0,29.97,East,90,20.9,20.9,98,0.21,RA,,0.92,WeatherDisplay:10.37,2013-10-09 07:32:00,
2013-10-09 03:37:00,62.6,62.0,29.96,NNW,338,20.7,20.7,98,0.20,RA,,0.95,WeatherDisplay:10.37,2013-10-09 07:37:00,
2013-10-09 03:42:00,62.6,62.0,29.96,NNE,22,13.8,13.8,98,0.23, +RA,,1.03,WeatherDisplay:10.37,2013-10-09 07:42:00,
2013-10-09 03:48:00,62.6,62.0,29.96,NNW,338,18.4,18.4,98,0.29, +RA,,1.10,WeatherDisplay:10.37,2013-10-09 07:48:00,
2013-10-09 03:53:00,62.6,62.0,29.98,ESE,112,15.0,15.0,98,0.31, +RA,,1.14,WeatherDisplay:10.37,2013-10-09 07:53:00,
2013-10-09 03:58:00,62.6,62.0,29.98,East,90,17.3,17.3,98,0.32, +RA,,1.16,WeatherDisplay:10.37,2013-10-09 07:58:00,
2013-10-09 04:03:00,62.6,62.0,29.97,East,90,15.0,15.0,98,0.33, +RA,,1.17,WeatherDisplay:10.37,2013-10-09 08:03:00,
2013-10-09 04:08:00,62.6,62.0,29.97,ENE,68,20.7,20.7,98,0.32, +RA,,1.18,WeatherDisplay:10.37,2013-10-09 08:08:00,
2013-10-09 04:13:00,62.8,62.2,29.97,ESE,112,17.3,17.3,98,0.32, +RA,,1.19,WeatherDisplay:10.37,2013-10-09 08:13:00,
2013-10-09 04:18:00,62.8,62.2,29.96,NW,315,15.0,15.0,98,0.33, +RA,,1.21,WeatherDisplay:10.37,2013-10-09 08:18:00,
2013-10-09 04:23:00,62.8,62.2,29.96,ENE,68,24.2,24.2,98,0.33, +RA,,1.24,WeatherDisplay:10.37,2013-10-09 08:23:00,
2013-10-09 04:28:00,62.8,62.2,29.96,ENE,68,24.2,24.2,98,0.35, +RA,,1.26,WeatherDisplay:10.37,2013-10-09 08:28:00,
2013-10-09 04:33:00,62.8,62.2,29.96,East,90,16.4,16.4,98,0.37, +RA,,1.29,WeatherDisplay:10.37,2013-10-09 08:33:00,
2013-10-09 04:38:00,63.0,62.4,29.97,ESE,112,18.2,18.2,98,0.36, +RA,,1.33,WeatherDisplay:10.37,2013-10-09 08:38:00,
2013-10-09 04:43:00,63.0,62.4,29.96,North,360,20.7,20.7,98,0.35, +RA,,1.37,WeatherDisplay:10.37,2013-10-09 08:43:00,
2013-10-09 04:48:00,63.0,62.4,29.96,ESE,112,16.1,16.1,98,0.32, +RA,,1.41,WeatherDisplay:10.37,2013-10-09 08:48:00,
2013-10-09 04:53:00,63.0,62.4,29.96,North,360,15.0,15.0,98,0.31, +RA,,1.44,WeatherDisplay:10.37,2013-10-09 08:53:00,
2013-10-09 04:58:00,63.1,62.5,29.95,North,360,18.4,18.4,98,0.31, +RA,,1.46,WeatherDisplay:10.37,2013-10-09 08:58:00,
2013-10-09 05:03:00,63.1,62.5,29.94,NW,315,15.0,15.0,98,0.30, +RA,,1.47,WeatherDisplay:10.37,2013-10-09 09:03:00,
2013-10-09 05:08:00,63.3,62.7,29.94,NE,45,11.5,11.5,98,0.29, +RA,,1.47,WeatherDisplay:10.37,2013-10-09 09:08:00,
2013-10-09 05:13:00,63.3,62.7,29.94,East,90,16.4,16.4,98,0.29, +RA,,1.48,WeatherDisplay:10.37,2013-10-09 09:13:00,
2013-10-09 05:18:00,63.5,62.9,29.95,North,360,20.0,20.0,98,0.27, +RA,,1.48,WeatherDisplay:10.37,2013-10-09 09:18:00,
2013-10-09 05:23:00,63.5,62.9,29.96,ENE,68,19.6,19.6,98,0.26,RA,,1.49,WeatherDisplay:10.37,2013-10-09 09:23:00,
2013-10-09 05:28:00,63.5,62.9,29.96,North,360,18.4,18.4,98,0.25,RA,,1.51,WeatherDisplay:10.37,2013-10-09 09:28:00,
2013-10-09 05:33:00,63.7,63.1,29.96,NNW,338,15.0,15.0,98,0.24,RA,,1.53,WeatherDisplay:10.37,2013-10-09 09:33:00,
2013-10-09 05:38:00,63.7,63.1,29.96,NNW,338,18.4,18.4,98,0.23,RA,,1.55,WeatherDisplay:10.37,2013-10-09 09:38:00,
2013-10-09 05:43:00,63.7,63.1,29.96,NW,315,13.7,13.7,98,0.20, +RA,,1.57,WeatherDisplay:10.37,2013-10-09 09:43:00,
2013-10-09 05:48:00,63.7,63.1,29.96,East,90,24.2,24.2,98,0.16, +RA,,1.57,WeatherDisplay:10.37,2013-10-09 09:48:00,
2013-10-09 05:53:00,63.9,63.3,29.96,ESE,112,15.0,15.0,98,0.14, +RA,,1.58,WeatherDisplay:10.37,2013-10-09 09:53:00,
2013-10-09 05:58:00,63.9,63.3,29.96,SSW,202,13.8,13.8,98,0.13, +RA,,1.60,WeatherDisplay:10.37,2013-10-09 09:58:00,
2013-10-09 06:03:00,64.0,63.4,29.95,SW,225,11.5,11.5,98,0.13, +RA,,1.61,WeatherDisplay:10.37,2013-10-09 10:03:00,
2013-10-09 06:08:00,64.0,63.4,29.94,East,90,21.9,21.9,98,0.15, +RA,,1.62,WeatherDisplay:10.37,2013-10-09 10:08:00,
2013-10-09 06:13:00,64.2,63.6,29.95,ENE,68,19.6,19.6,98,0.17, +RA,,1.65,WeatherDisplay:10.37,2013-10-09 10:13:00,
2013-10-09 06:18:00,64.2,63.6,29.95,NE,45,16.1,16.1,98,0.21, +RA,,1.70,WeatherDisplay:10.37,2013-10-09 10:18:00,
2013-10-09 06:23:00,64.4,63.8,29.95,East,90,24.2,24.2,98,0.23, +RA,,1.72,WeatherDisplay:10.37,2013-10-09 10:23:00,
2013-10-09 06:28:00,64.4,63.8,29.95,NNW,338,11.5,11.5,98,0.24, +RA,,1.75,WeatherDisplay:10.37,2013-10-09 10:28:00,
2013-10-09 06:33:00,64.6,64.0,29.95,East,90,21.9,21.9,98,0.25, +RA,,1.78,WeatherDisplay:10.37,2013-10-09 10:33:00,
2013-10-09 06:38:00,64.6,64.0,29.95,NW,315,16.4,16.4,98,0.25, +RA,,1.80,WeatherDisplay:10.37,2013-10-09 10:38:00,
2013-10-09 06:43:00,64.8,64.2,29.93,ENE,68,16.1,16.1,98,0.25, +RA,,1.82,WeatherDisplay:10.37,2013-10-09 10:43:00,
2013-10-09 06:48:00,64.9,64.3,29.93,West,270,16.1,16.1,98,0.27, +RA,,1.84,WeatherDisplay:10.37,2013-10-09 10:48:00,
2013-10-09 06:53:00,65.1,64.5,29.95,ESE,112,21.8,21.8,98,0.27, +RA,,1.85,WeatherDisplay:10.37,2013-10-09 10:53:00,
2013-10-09 06:58:00,65.1,64.5,29.95,NNW,338,17.3,17.3,98,0.27, +RA,,1.87,WeatherDisplay:10.37,2013-10-09 10:58:00,
2013-10-09 07:03:00,65.1,64.5,29.92,NNW,338,18.4,18.4,98,0.27, +RA,,1.87,WeatherDisplay:10.37,2013-10-09 11:03:00,
2013-10-09 07:08:00,65.3,64.7,29.92,SSW,202,33.4,33.4,98,0.29, +RA,,1.91,WeatherDisplay:10.37,2013-10-09 11:08:00,
2013-10-09 07:13:00,65.5,64.9,29.92,ESE,112,21.9,21.9,98,0.29, +RA,,1.94,WeatherDisplay:10.37,2013-10-09 11:13:00,
2013-10-09 07:18:00,65.7,65.1,29.92,SSE,158,17.3,17.3,98,0.28, +RA,,1.97,WeatherDisplay:10.37,2013-10-09 11:18:00,
2013-10-09 07:23:00,65.7,65.1,29.92,East,90,20.7,20.7,98,0.27, +RA,,2.00,WeatherDisplay:10.37,2013-10-09 11:23:00,
2013-10-09 07:28:00,65.8,65.2,29.92,SSW,202,18.4,18.4,98,0.26, +RA,,2.01,WeatherDisplay:10.37,2013-10-09 11:28:00,
2013-10-09 07:33:00,65.8,65.2,29.92,West,270,18.4,18.4,98,0.24, +RA,,2.02,WeatherDisplay:10.37,2013-10-09 11:33:00,
2013-10-09 07:38:00,66.0,65.4,29.92,ESE,112,20.7,20.7,98,0.23, +RA,,2.04,WeatherDisplay:10.37,2013-10-09 11:38:00,
2013-10-09 07:43:00,66.0,65.4,29.93,ENE,68,26.5,26.5,98,0.26,-RA,,2.08,WeatherDisplay:10.37,2013-10-09 11:43:00,
2013-10-09 07:48:00,66.0,65.4,29.93,ENE,68,19.6,19.6,98,0.26,-RA,,2.10,WeatherDisplay:10.37,2013-10-09 11:48:00,
2013-10-09 07:53:00,66.0,65.4,29.93,ENE,68,9.2,9.2,98,0.25,-RA,,2.10,WeatherDisplay:10.37,2013-10-09 11:53:00,
2013-10-09 07:58:00,66.0,65.4,29.92,East,90,25.3,25.3,98,0.30,-RA,,2.16,WeatherDisplay:10.37,2013-10-09 11:58:00,
2013-10-09 08:03:00,66.0,65.4,29.93,NW,315,27.6,27.6,98,0.31,RA,,2.18,WeatherDisplay:10.37,2013-10-09 12:03:00,
2013-10-09 08:08:00,66.0,65.1,29.93,East,90,24.2,24.2,97,0.28,RA,,2.18,WeatherDisplay:10.37,2013-10-09 12:08:00,
2013-10-09 08:13:00,66.0,65.1,29.93,East,90,35.7,35.7,97,0.25,-RA,,2.18,WeatherDisplay:10.37,2013-10-09 12:13:00,
2013-10-09 08:18:00,66.0,65.1,29.93,ESE,112,21.8,21.8,97,0.22,-RA,,2.18,WeatherDisplay:10.37,2013-10-09 12:18:00,
2013-10-09 08:23:00,66.0,65.1,29.93,East,90,32.2,32.2,97,0.20,-RA,,2.20,WeatherDisplay:10.37,2013-10-09 12:23:00,
2013-10-09 08:28:00,66.0,65.1,29.93,NNE,22,27.6,27.6,97,0.24,-RA,,2.25,WeatherDisplay:10.37,2013-10-09 12:28:00,
2013-10-09 08:33:00,66.0,65.1,29.94,NE,45,15.0,15.0,97,0.25,-RA,,2.27,WeatherDisplay:10.37,2013-10-09 12:33:00,
2013-10-09 08:38:00,66.0,65.1,29.94,NE,45,24.2,24.2,97,0.26,-RA,,2.28,WeatherDisplay:10.37,2013-10-09 12:38:00,
2013-10-09 08:43:00,66.0,65.1,29.94,East,90,20.9,20.9,97,0.22,-RA,,2.29,WeatherDisplay:10.37,2013-10-09 12:43:00,
2013-10-09 08:48:00,66.0,65.1,29.94,ESE,112,24.2,24.2,97,0.19,-RA,,2.29,WeatherDisplay:10.37,2013-10-09 12:48:00,
2013-10-09 08:53:00,66.0,65.1,29.95,East,90,24.2,24.2,97,0.20, +RA,,2.30,WeatherDisplay:10.37,2013-10-09 12:53:00,
2013-10-09 08:58:00,66.0,65.1,29.95,East,90,19.1,19.1,97,0.16, +RA,,2.32,WeatherDisplay:10.37,2013-10-09 12:58:00,
2013-10-09 09:03:00,66.0,65.1,29.95,NW,315,19.6,19.6,97,0.15, +RA,,2.33,WeatherDisplay:10.37,2013-10-09 13:03:00,
2013-10-09 09:08:00,66.0,65.1,29.95,NE,45,13.8,13.8,97,0.16, +RA,,2.34,WeatherDisplay:10.37,2013-10-09 13:08:00,
2013-10-09 09:13:00,66.0,65.1,29.95,ENE,68,18.4,18.4,97,0.16,-RA,,2.34,WeatherDisplay:10.37,2013-10-09 13:13:00,
2013-10-09 09:18:00,66.0,65.1,29.95,ENE,68,34.5,34.5,97,0.16,-RA,,2.35,WeatherDisplay:10.37,2013-10-09 13:18:00,
2013-10-09 09:23:00,66.0,65.1,29.95,NW,315,11.5,11.5,97,0.15,-RA,,2.35,WeatherDisplay:10.37,2013-10-09 13:23:00,
2013-10-09 09:28:00,66.0,65.1,29.95,ESE,112,11.5,11.5,97,0.10,-RA,,2.35,WeatherDisplay:10.37,2013-10-09 13:28:00,
2013-10-09 09:33:00,66.0,65.1,29.95,NE,45,23.0,23.0,97,0.08,-RA,,2.35,WeatherDisplay:10.37,2013-10-09 13:33:00,
2013-10-09 09:38:00,66.0,65.1,29.93,WNW,292,17.3,17.3,97,0.07,-RA,,2.35,WeatherDisplay:10.37,2013-10-09 13:38:00,
2013-10-09 09:43:00,66.0,65.1,29.93,ENE,68,19.6,19.6,97,0.06,-RA,,2.35,WeatherDisplay:10.37,2013-10-09 13:43:00,
2013-10-09 09:48:00,66.0,65.1,29.95,NNW,338,20.7,20.7,97,0.06,-RA,,2.35,WeatherDisplay:10.37,2013-10-09 13:48:00,
2013-10-09 09:53:00,66.2,65.3,29.95,NW,315,15.0,15.0,97,0.05,-RA,,2.35,WeatherDisplay:10.37,2013-10-09 13:53:00,
2013-10-09 09:58:00,66.2,65.3,29.95,North,360,19.6,19.6,97,0.03,-RA,,2.35,WeatherDisplay:10.37,2013-10-09 13:58:00,
2013-10-09 10:03:00,66.2,65.3,29.95,ESE,112,12.7,12.7,97,0.02,-RA,,2.35,WeatherDisplay:10.37,2013-10-09 14:03:00,
2013-10-09 10:08:00,66.2,65.3,29.95,ESE,112,21.9,21.9,97,0.01,-RA,,2.36,WeatherDisplay:10.37,2013-10-09 14:08:00,
2013-10-09 10:13:00,66.4,65.5,29.94,NW,315,16.1,16.1,97,0.03,-RA,,2.37,WeatherDisplay:10.37,2013-10-09 14:13:00,
2013-10-09 10:18:00,66.4,65.5,29.94,East,90,20.7,20.7,97,0.04,-RA,,2.39,WeatherDisplay:10.37,2013-10-09 14:18:00,
2013-10-09 10:23:00,66.4,65.5,29.94,NNW,338,29.0,29.0,97,0.04,-RA,,2.39,WeatherDisplay:10.37,2013-10-09 14:23:00,
2013-10-09 10:28:00,66.6,65.7,29.94,ESE,112,23.0,23.0,97,0.04,-RA,,2.40,WeatherDisplay:10.37,2013-10-09 14:28:00,
2013-10-09 10:33:00,66.6,65.7,29.93,ENE,68,21.9,21.9,97,0.06,RA,,2.41,WeatherDisplay:10.37,2013-10-09 14:33:00,
2013-10-09 10:38:00,66.6,65.7,29.93,West,270,21.9,21.9,97,0.07,RA,,2.42,WeatherDisplay:10.37,2013-10-09 14:38:00,
2013-10-09 10:43:00,66.6,65.7,29.93,NNW,338,19.6,19.6,97,0.07,RA,,2.42,WeatherDisplay:10.37,2013-10-09 14:43:00,
2013-10-09 10:48:00,66.6,65.4,29.93,NW,315,27.6,27.6,96,0.07,OVC,,2.42,WeatherDisplay:10.37,2013-10-09 14:48:00,
2013-10-09 10:53:00,66.6,65.4,29.93,NNW,338,25.3,25.3,96,0.07,-RA,,2.42,WeatherDisplay:10.37,2013-10-09 14:53:00,
2013-10-09 10:58:00,66.6,65.4,29.93,NW,315,21.8,21.8,96,0.07,-RA,,2.42,WeatherDisplay:10.37,2013-10-09 14:58:00,
2013-10-09 11:03:00,66.6,65.4,29.93,North,360,12.7,12.7,96,0.07,-RA,,2.42,WeatherDisplay:10.37,2013-10-09 15:03:00,
2013-10-09 11:08:00,66.7,65.5,29.93,North,360,15.0,15.0,96,0.07,-RA,,2.42,WeatherDisplay:10.37,2013-10-09 15:08:00,
2013-10-09 11:13:00,66.7,65.5,29.94,NNW,338,23.0,23.0,96,0.06,-RA,,2.43,WeatherDisplay:10.37,2013-10-09 15:13:00,
2013-10-09 11:18:00,66.7,65.5,29.94,NNE,22,19.6,19.6,96,0.05,-RA,,2.43,WeatherDisplay:10.37,2013-10-09 15:18:00,
2013-10-09 11:23:00,66.7,65.5,29.93,North,360,21.9,21.9,96,0.04,-RA,,2.43,WeatherDisplay:10.37,2013-10-09 15:23:00,
2013-10-09 11:28:00,66.7,65.5,29.93,West,270,17.3,17.3,96,0.04,-RA,,2.43,WeatherDisplay:10.37,2013-10-09 15:28:00,
2013-10-09 11:33:00,66.7,65.5,29.93,NE,45,31.1,31.1,96,0.02,-RA,,2.43,WeatherDisplay:10.37,2013-10-09 15:33:00,
2013-10-09 11:38:00,66.7,65.5,29.94,NNE,22,15.5,15.5,96,0.02,-RA,,2.44,WeatherDisplay:10.37,2013-10-09 15:38:00,
2013-10-09 11:43:00,66.7,65.5,29.94,NE,45,18.4,18.4,96,0.03,-RA,,2.46,WeatherDisplay:10.37,2013-10-09 15:43:00,
2013-10-09 11:48:00,66.7,65.5,29.94,ESE,112,24.2,24.2,96,0.04,-RA,,2.47,WeatherDisplay:10.37,2013-10-09 15:48:00,
2013-10-09 11:53:00,66.9,65.7,29.93,NNE,22,21.9,21.9,96,0.05,-RA,,2.47,WeatherDisplay:10.37,2013-10-09 15:53:00,
2013-10-09 11:58:00,66.9,65.7,29.93,ESE,112,25.3,25.3,96,0.06,-RA,,2.48,WeatherDisplay:10.37,2013-10-09 15:58:00,
2013-10-09 12:03:00,66.9,65.7,29.93,WNW,292,12.7,12.7,96,0.07,RA,,2.49,WeatherDisplay:10.37,2013-10-09 16:03:00,
2013-10-09 12:09:00,66.9,65.7,29.93,NE,45,21.9,21.9,96,0.07,RA,,2.49,WeatherDisplay:10.37,2013-10-09 16:09:00,
2013-10-09 12:14:00,66.9,65.7,29.93,North,360,28.1,28.1,96,0.07,RA,,2.50,WeatherDisplay:10.37,2013-10-09 16:14:00,
2013-10-09 12:19:00,66.9,65.7,29.93,East,90,17.3,17.3,96,0.07,RA,,2.50,WeatherDisplay:10.37,2013-10-09 16:19:00,
2013-10-09 12:24:00,66.9,65.7,29.93,East,90,19.6,19.6,96,0.07,-RA,,1.19,WeatherDisplay:10.37,2013-10-09 16:24:00,
2013-10-09 12:29:00,66.9,65.7,29.93,ENE,68,23.0,23.0,96,0.07,-RA,,1.19,WeatherDisplay:10.37,2013-10-09 16:29:00,
2013-10-09 12:34:00,66.9,65.7,29.93,WNW,292,31.1,31.1,96,0.07,-RA,,1.19,WeatherDisplay:10.37,2013-10-09 16:34:00,
2013-10-09 12:39:00,66.9,65.7,29.91,WNW,292,15.5,15.5,96,0.06,-RA,,1.19,WeatherDisplay:10.37,2013-10-09 16:39:00,
2013-10-09 12:44:00,67.1,65.9,29.91,NW,315,19.6,19.6,96,0.05,-RA,,1.19,WeatherDisplay:10.37,2013-10-09 16:44:00,
2013-10-09 12:49:00,67.3,66.1,29.92,ENE,68,20.7,20.7,96,0.04,-RA,,1.19,WeatherDisplay:10.37,2013-10-09 16:49:00,
2013-10-09 12:54:00,67.3,65.8,29.93,ENE,68,32.2,32.2,95,0.03,-RA,,1.19,WeatherDisplay:10.37,2013-10-09 16:54:00,
2013-10-09 12:59:00,67.3,65.8,29.93,West,270,22.7,22.7,95,0.02,-RA,,1.19,WeatherDisplay:10.37,2013-10-09 16:59:00,
2013-10-09 13:04:00,67.3,65.8,29.92,NW,315,15.0,15.0,95,0.01,OVC,,1.19,WeatherDisplay:10.37,2013-10-09 17:04:00,
2013-10-09 13:09:00,67.5,66.0,29.92,ESE,112,18.4,18.4,95,0.01,OVC,,1.19,WeatherDisplay:10.37,2013-10-09 17:09:00,
2013-10-09 13:14:00,67.5,65.7,29.92,NW,315,18.2,18.2,94,0.01,OVC,,1.19,WeatherDisplay:10.37,2013-10-09 17:14:00,
2013-10-09 13:19:00,67.5,65.7,29.92,NE,45,19.6,19.6,94,0.00,OVC,,1.19,WeatherDisplay:10.37,2013-10-09 17:19:00,
2013-10-09 13:24:00,67.5,65.7,29.92,NNE,22,16.1,16.1,94,0.00,OVC,,1.19,WeatherDisplay:10.37,2013-10-09 17:24:00,
2013-10-09 13:29:00,67.6,65.8,29.92,NNW,338,13.8,13.8,94,0.00,OVC,,1.19,WeatherDisplay:10.37,2013-10-09 17:29:00,
2013-10-09 13:34:00,67.6,65.8,29.92,ENE,68,25.3,25.3,94,0.00,OVC,,1.19,WeatherDisplay:10.37,2013-10-09 17:34:00,
2013-10-09 13:39:00,67.6,65.5,29.92,NNW,338,20.0,20.0,93,0.00,OVC,,1.19,WeatherDisplay:10.37,2013-10-09 17:39:00,
2013-10-09 13:44:00,67.6,65.5,29.92,NNW,338,23.0,23.0,93,0.00,OVC,,1.19,WeatherDisplay:10.37,2013-10-09 17:44:00,
2013-10-09 13:49:00,67.8,65.7,29.91,North,360,19.6,19.6,93,0.00,OVC,,1.19,WeatherDisplay:10.37,2013-10-09 17:49:00,
2013-10-09 13:54:00,67.8,65.7,29.92,West,270,15.0,15.0,93,0.00,OVC,,1.19,WeatherDisplay:10.37,2013-10-09 17:54:00,
2013-10-09 13:59:00,67.8,65.7,29.90,West,270,13.8,13.8,93,0.00,OVC,,1.19,WeatherDisplay:10.37,2013-10-09 17:59:00,
2013-10-09 14:04:00,67.8,65.7,29.92,NE,45,15.0,15.0,93,0.00,OVC,,1.19,WeatherDisplay:10.37,2013-10-09 18:04:00,
2013-10-09 14:09:00,67.8,65.7,29.89,ESE,112,21.9,21.9,93,0.00,OVC,,1.19,WeatherDisplay:10.37,2013-10-09 18:09:00,
2013-10-09 14:14:00,67.6,65.5,29.92,NNE,22,15.0,15.0,93,0.00,OVC,,1.19,WeatherDisplay:10.37,2013-10-09 18:14:00,
2013-10-09 14:19:00,67.6,65.5,29.92,East,90,13.8,13.8,93,0.00,OVC,,1.19,WeatherDisplay:10.37,2013-10-09 18:19:00,
2013-10-09 14:24:00,67.5,65.4,29.90,NNE,22,17.3,17.3,93,0.00,-RA,,1.19,WeatherDisplay:10.37,2013-10-09 18:24:00,
2013-10-09 14:29:00,67.1,65.3,29.90,West,270,18.4,18.4,94,0.00,-RA,,1.19,WeatherDisplay:10.37,2013-10-09 18:29:00,
2013-10-09 14:34:00,67.1,65.3,29.90,WSW,248,19.6,19.6,94,0.01,-RA,,1.20,WeatherDisplay:10.37,2013-10-09 18:34:00,
2013-10-09 14:39:00,67.1,65.6,29.90,NW,315,17.3,17.3,95,0.02,-RA,,1.21,WeatherDisplay:10.37,2013-10-09 18:39:00,
2013-10-09 14:44:00,66.9,65.4,29.90,East,90,21.9,21.9,95,0.03,RA,,1.22,WeatherDisplay:10.37,2013-10-09 18:44:00,
2013-10-09 14:49:00,66.7,65.5,29.90,NW,315,19.6,19.6,96,0.04,RA,,1.23,WeatherDisplay:10.37,2013-10-09 18:49:00,
2013-10-09 14:54:00,66.7,65.5,29.90,ESE,112,19.6,19.6,96,0.05,RA,,1.24,WeatherDisplay:10.37,2013-10-09 18:54:00,
2013-10-09 14:59:00,66.6,65.4,29.90,NW,315,15.0,15.0,96,0.05,RA,,1.24,WeatherDisplay:10.37,2013-10-09 18:59:00,
2013-10-09 15:04:00,66.6,65.4,29.90,NNW,338,19.6,19.6,96,0.05,OVC,,1.24,WeatherDisplay:10.37,2013-10-09 19:04:00,
2013-10-09 15:09:00,66.6,65.4,29.90,NW,315,21.9,21.9,96,0.05,OVC,,1.24,WeatherDisplay:10.37,2013-10-09 19:09:00,
2013-10-09 15:14:00,66.4,65.2,29.89,NNW,338,24.2,24.2,96,0.05,OVC,,1.24,WeatherDisplay:10.37,2013-10-09 19:14:00,
2013-10-09 15:19:00,66.4,65.2,29.89,WSW,248,19.1,19.1,96,0.06,RA,,1.25,WeatherDisplay:10.37,2013-10-09 19:19:00,
2013-10-09 15:24:00,66.2,65.3,29.89,NNW,338,20.0,20.0,97,0.06,RA,,1.25,WeatherDisplay:10.37,2013-10-09 19:24:00,
2013-10-09 15:29:00,66.2,65.3,29.89,NNW,338,13.8,13.8,97,0.06,OVC,,1.25,WeatherDisplay:10.37,2013-10-09 19:29:00,
2013-10-09 15:34:00,66.2,65.3,29.89,NW,315,24.2,24.2,97,0.05,OVC,,1.25,WeatherDisplay:10.37,2013-10-09 19:34:00,
2013-10-09 15:40:00,66.2,65.3,29.89,NW,315,20.0,20.0,97,0.04,OVC,,1.25,WeatherDisplay:10.37,2013-10-09 19:40:00,
2013-10-09 15:45:00,66.0,65.1,29.89,NNW,338,31.1,31.1,97,0.04,RA,,1.26,WeatherDisplay:10.37,2013-10-09 19:45:00,
2013-10-09 15:50:00,66.0,65.1,29.89,NW,315,15.0,15.0,97,0.03,RA,,1.26,WeatherDisplay:10.37,2013-10-09 19:50:00,
2013-10-09 15:55:00,66.0,65.1,29.89,NW,315,16.1,18.1,97,0.02,OVC,,1.26,WeatherDisplay:10.37,2013-10-09 19:55:00,
2013-10-09 16:00:00,66.0,65.1,29.89,North,360,19.6,19.6,97,0.02,OVC,,1.26,WeatherDisplay:10.37,2013-10-09 20:00:00,
2013-10-09 16:05:00,66.0,65.1,29.89,NW,315,12.8,12.8,97,0.02,OVC,,1.26,WeatherDisplay:10.37,2013-10-09 20:05:00,
2013-10-09 16:10:00,65.8,64.9,29.89,SSE,158,18.4,18.4,97,0.03,RA,,1.27,WeatherDisplay:10.37,2013-10-09 20:10:00,
2013-10-09 16:15:00,65.8,64.9,29.88,NW,315,21.9,21.9,97,0.04,RA,,1.28,WeatherDisplay:10.37,2013-10-09 20:15:00,
2013-10-09 16:20:00,65.8,64.9,29.88,WSW,248,21.9,21.9,97,0.03,RA,,1.28,WeatherDisplay:10.37,2013-10-09 20:20:00,
2013-10-09 16:25:00,65.7,64.8,29.88,NNW,338,18.4,18.4,97,0.04,RA,,1.29,WeatherDisplay:10.37,2013-10-09 20:25:00,
2013-10-09 16:30:00,65.5,64.6,29.89,NW,315,23.6,23.6,97,0.04,RA,,1.29,WeatherDisplay:10.37,2013-10-09 20:30:00,
2013-10-09 16:35:00,65.5,64.6,29.89,NNW,338,19.6,19.6,97,0.04,OVC,,1.29,WeatherDisplay:10.37,2013-10-09 20:35:00,
2013-10-09 16:40:00,65.5,64.6,29.89,North,360,19.6,19.6,97,0.04,OVC,,1.29,WeatherDisplay:10.37,2013-10-09 20:40:00,
2013-10-09 16:45:00,65.5,64.6,29.89,SSW,202,9.2,9.2,97,0.03,-RA,,1.29,WeatherDisplay:10.37,2013-10-09 20:45:00,
2013-10-09 16:50:00,65.3,64.4,29.89,East,90,19.6,19.6,97,0.03,-RA,,1.29,WeatherDisplay:10.37,2013-10-09 20:50:00,
2013-10-09 16:55:00,65.3,64.4,29.89,NW,315,17.3,17.3,97,0.03,-RA,,1.29,WeatherDisplay:10.37,2013-10-09 20:55:00,
2013-10-09 17:00:00,65.1,64.2,29.89,NNW,338,24.2,24.2,97,0.03,-RA,,1.29,WeatherDisplay:10.37,2013-10-09 21:00:00,
2013-10-09 17:05:00,65.1,64.2,29.89,ESE,112,17.3,17.3,97,0.03,-RA,,1.29,WeatherDisplay:10.37,2013-10-09 21:05:00,
2013-10-09 17:10:00,64.9,64.0,29.89,NNW,338,16.1,16.1,97,0.02,-RA,,1.29,WeatherDisplay:10.37,2013-10-09 21:10:00,
2013-10-09 17:15:00,64.9,64.0,29.89,WNW,292,21.9,21.9,97,0.01,-RA,,1.29,WeatherDisplay:10.37,2013-10-09 21:15:00,
2013-10-09 17:20:00,64.9,64.0,29.89,NNW,338,23.0,23.0,97,0.01,-RA,,1.29,WeatherDisplay:10.37,2013-10-09 21:20:00,
2013-10-09 17:25:00,64.8,63.9,29.88,NW,315,15.0,15.0,97,0.00,-RA,,1.29,WeatherDisplay:10.37,2013-10-09 21:25:00,
2013-10-09 17:30:00,64.8,63.9,29.89,NW,315,21.9,21.9,97,0.00,-RA,,1.29,WeatherDisplay:10.37,2013-10-09 21:30:00,
2013-10-09 17:35:00,64.6,63.7,29.89,NW,315,26.5,26.5,97,0.00,-RA,,1.29,WeatherDisplay:10.37,2013-10-09 21:35:00,
2013-10-09 17:40:00,64.6,63.7,29.89,NW,315,24.2,24.2,97,0.00,-RA,,1.29,WeatherDisplay:10.37,2013-10-09 21:40:00,
2013-10-09 17:45:00,64.6,63.7,29.89,North,360,24.2,24.2,97,0.00,-RA,,1.29,WeatherDisplay:10.37,2013-10-09 21:45:00,
2013-10-09 17:50:00,64.4,63.5,29.89,WNW,292,24.2,24.2,97,0.00,-RA,,1.29,WeatherDisplay:10.37,2013-10-09 21:50:00,
2013-10-09 17:55:00,64.4,63.5,29.89,NW,315,19.6,19.6,97,0.00,-RA,,1.29,WeatherDisplay:10.37,2013-10-09 21:55:00,
2013-10-09 18:00:00,64.4,63.5,29.89,ESE,112,26.3,26.3,97,0.00,-RA,,1.29,WeatherDisplay:10.37,2013-10-09 22:00:00,
2013-10-09 18:05:00,64.2,63.3,29.88,WNW,292,18.4,18.4,97,0.00,OVC,,1.29,WeatherDisplay:10.37,2013-10-09 22:05:00,
2013-10-09 18:10:00,64.2,63.3,29.88,North,360,23.0,23.0,97,0.00,OVC,,1.29,WeatherDisplay:10.37,2013-10-09 22:10:00,
2013-10-09 18:15:00,64.0,63.1,29.88,NNW,338,18.4,18.4,97,0.01,RA,,1.30,WeatherDisplay:10.37,2013-10-09 22:15:00,
2013-10-09 18:20:00,64.0,63.1,29.88,WNW,292,19.6,19.6,97,0.01,RA,,1.30,WeatherDisplay:10.37,2013-10-09 22:20:00,
2013-10-09 18:25:00,63.9,63.0,29.88,NW,315,18.4,18.4,97,0.01,-RA,,1.30,WeatherDisplay:10.37,2013-10-09 22:25:00,
2013-10-09 18:30:00,63.9,63.0,29.88,WNW,292,19.6,19.6,97,0.01,-RA,,1.30,WeatherDisplay:10.37,2013-10-09 22:30:00,
2013-10-09 18:35:00,63.9,63.0,29.88,NNW,338,18.2,18.2,97,0.01,-RA,,1.30,WeatherDisplay:10.37,2013-10-09 22:35:00,
2013-10-09 18:40:00,63.9,63.0,29.87,NW,315,27.6,27.6,97,0.01,-RA,,1.30,WeatherDisplay:10.37,2013-10-09 22:40:00,
2013-10-09 18:45:00,63.9,63.0,29.88,NW,315,24.2,24.2,97,0.01,OVC,,1.30,WeatherDisplay:10.37,2013-10-09 22:45:00,
2013-10-09 18:50:00,63.9,63.0,29.87,NW,315,11.9,11.9,97,0.01,OVC,,1.30,WeatherDisplay:10.37,2013-10-09 22:50:00,
2013-10-09 18:55:00,63.9,63.0,29.88,NE,45,16.1,16.1,97,0.01,OVC,,1.30,WeatherDisplay:10.37,2013-10-09 22:55:00,
2013-10-09 19:00:00,63.9,63.0,29.88,WNW,292,23.0,23.0,97,0.01,OVC,,1.30,WeatherDisplay:10.37,2013-10-09 23:00:00,
2013-10-09 19:05:00,63.9,63.0,29.88,North,360,19.6,19.6,97,0.01,OVC,,1.30,WeatherDisplay:10.37,2013-10-09 23:05:00,
2013-10-09 19:10:00,63.9,63.0,29.88,NNE,22,24.2,24.2,97,0.01,OVC,,1.30,WeatherDisplay:10.37,2013-10-09 23:10:00,
2013-10-09 19:15:00,63.7,62.8,29.88,NNE,22,20.0,20.0,97,0.01,RA,,1.31,WeatherDisplay:10.37,2013-10-09 23:15:00,
2013-10-09 19:21:00,63.7,62.8,29.87,East,90,21.9,21.9,97,0.02,RA,,1.32,WeatherDisplay:10.37,2013-10-09 23:21:00,
2013-10-09 19:26:00,63.7,62.8,29.88,WNW,292,24.2,24.2,97,0.02,RA,,1.32,WeatherDisplay:10.37,2013-10-09 23:26:00,
2013-10-09 19:31:00,63.7,62.8,29.88,NW,315,20.0,20.0,97,0.02,OVC,,1.32,WeatherDisplay:10.37,2013-10-09 23:31:00,
2013-10-09 19:36:00,63.7,62.8,29.88,NNW,338,17.3,17.3,97,0.02,OVC,,1.32,WeatherDisplay:10.37,2013-10-09 23:36:00,
2013-10-09 19:41:00,63.7,62.8,29.88,NNW,338,27.6,27.6,97,0.02,OVC,,1.32,WeatherDisplay:10.37,2013-10-09 23:41:00,
2013-10-09 19:46:00,63.7,62.8,29.88,NNE,22,24.2,24.2,97,0.02,OVC,,1.32,WeatherDisplay:10.37,2013-10-09 23:46:00,
2013-10-09 19:51:00,63.7,62.8,29.87,NNW,338,21.9,21.9,97,0.02,OVC,,1.32,WeatherDisplay:10.37,2013-10-09 23:51:00,
2013-10-09 19:56:00,63.7,62.8,29.88,NNE,22,19.6,19.6,97,0.02,OVC,,1.32,WeatherDisplay:10.37,2013-10-09 23:56:00,
2013-10-09 20:01:00,63.7,62.8,29.88,NNE,22,19.6,19.6,97,0.02,OVC,,1.32,WeatherDisplay:10.37,2013-10-10 00:01:00,
2013-10-09 20:06:00,63.7,62.8,29.86,NNW,338,21.9,21.9,97,0.02,OVC,,1.32,WeatherDisplay:10.37,2013-10-10 00:06:00,
2013-10-09 20:11:00,63.7,62.8,29.88,NNW,338,19.6,19.6,97,0.02,OVC,,1.32,WeatherDisplay:10.37,2013-10-10 00:11:00,
2013-10-09 20:16:00,63.7,62.8,29.88,WNW,292,18.4,18.4,97,0.01,OVC,,1.32,WeatherDisplay:10.37,2013-10-10 00:16:00,
2013-10-09 20:21:00,63.7,62.8,29.87,North,360,20.9,20.9,97,0.00,OVC,,1.32,WeatherDisplay:10.37,2013-10-10 00:21:00,
2013-10-09 20:26:00,63.7,62.8,29.86,NNW,338,26.5,26.5,97,0.00,OVC,,1.32,WeatherDisplay:10.37,2013-10-10 00:26:00,
2013-10-09 20:31:00,63.7,62.8,29.86,NNW,338,19.6,19.6,97,0.00,OVC,,1.32,WeatherDisplay:10.37,2013-10-10 00:31:00,
2013-10-09 20:36:00,63.7,62.8,29.87,NW,315,23.6,23.6,97,0.00,OVC,,1.32,WeatherDisplay:10.37,2013-10-10 00:36:00,
2013-10-09 20:41:00,63.7,62.8,29.87,NW,315,19.6,19.6,97,0.00,OVC,,1.32,WeatherDisplay:10.37,2013-10-10 00:41:00,
2013-10-09 20:46:00,63.7,62.8,29.87,NNW,338,20.9,20.9,97,0.00,OVC,,1.32,WeatherDisplay:10.37,2013-10-10 00:46:00,
2013-10-09 20:51:00,63.7,62.8,29.87,NE,45,16.1,16.1,97,0.00,OVC,,1.32,WeatherDisplay:10.37,2013-10-10 00:51:00,
2013-10-09 20:56:00,63.7,62.8,29.87,NNW,338,29.9,29.9,97,0.00,OVC,,1.32,WeatherDisplay:10.37,2013-10-10 00:56:00,
2013-10-09 21:01:00,63.7,62.8,29.87,ESE,112,16.1,16.1,97,0.00,OVC,,1.32,WeatherDisplay:10.37,2013-10-10 01:01:00,
2013-10-09 21:06:00,63.7,62.8,29.87,NW,315,20.7,20.7,97,0.00,OVC,,1.32,WeatherDisplay:10.37,2013-10-10 01:06:00,
2013-10-09 21:11:00,63.7,62.8,29.87,NNE,22,20.7,20.7,97,0.00,OVC,,1.32,WeatherDisplay:10.37,2013-10-10 01:11:00,
2013-10-09 21:16:00,63.7,62.8,29.87,North,360,17.3,17.3,97,0.00,OVC,,1.32,WeatherDisplay:10.37,2013-10-10 01:16:00,
2013-10-09 21:21:00,63.7,62.8,29.87,NW,315,20.9,20.9,97,0.00,OVC,,1.32,WeatherDisplay:10.37,2013-10-10 01:21:00,
2013-10-09 21:26:00,63.7,62.8,29.87,WNW,292,21.9,21.9,97,0.00,OVC,,1.32,WeatherDisplay:10.37,2013-10-10 01:26:00,
2013-10-09 21:31:00,63.7,62.8,29.87,NNW,338,24.2,24.2,97,0.00,OVC,,1.32,WeatherDisplay:10.37,2013-10-10 01:31:00,
2013-10-09 21:36:00,63.7,62.8,29.87,WNW,292,13.8,13.8,97,0.00,OVC,,1.32,WeatherDisplay:10.37,2013-10-10 01:36:00,
2013-10-09 21:41:00,63.7,62.8,29.87,NW,315,17.3,17.3,97,0.00,OVC,,1.32,WeatherDisplay:10.37,2013-10-10 01:41:00,
2013-10-09 21:46:00,63.7,62.8,29.87,NNE,22,15.5,15.5,97,0.00,OVC,,1.32,WeatherDisplay:10.37,2013-10-10 01:46:00,
2013-10-09 21:51:00,63.7,62.8,29.87,NW,315,19.6,19.6,97,0.00,OVC,,1.32,WeatherDisplay:10.37,2013-10-10 01:51:00,
2013-10-09 21:56:00,63.7,62.8,29.87,North,360,20.7,20.7,97,0.00,OVC,,1.32,WeatherDisplay:10.37,2013-10-10 01:56:00,
2013-10-09 22:01:00,63.7,62.8,29.87,NNW,338,19.6,19.6,97,0.00,OVC,,1.32,WeatherDisplay:10.37,2013-10-10 02:01:00,
2013-10-09 22:06:00,63.7,62.8,29.87,North,360,17.3,17.3,97,0.00,OVC,,1.32,WeatherDisplay:10.37,2013-10-10 02:06:00,
2013-10-09 22:11:00,63.7,62.8,29.88,WNW,292,21.8,21.8,97,0.00,OVC,,1.32,WeatherDisplay:10.37,2013-10-10 02:11:00,
2013-10-09 22:16:00,63.7,62.8,29.87,NW,315,13.7,13.7,97,0.00,OVC,,1.32,WeatherDisplay:10.37,2013-10-10 02:16:00,
2013-10-09 22:21:00,63.7,62.8,29.87,North,360,19.6,19.6,97,0.00,OVC,,1.32,WeatherDisplay:10.37,2013-10-10 02:21:00,
2013-10-09 22:26:00,63.7,62.8,29.87,ESE,112,23.0,23.0,97,0.00,OVC,,1.32,WeatherDisplay:10.37,2013-10-10 02:26:00,
2013-10-09 22:31:00,63.7,62.8,29.87,NW,315,19.6,19.6,97,0.00,OVC,,1.32,WeatherDisplay:10.37,2013-10-10 02:31:00,
2013-10-09 22:37:00,63.5,62.6,29.87,NW,315,20.7,20.7,97,0.00,OVC,,1.32,WeatherDisplay:10.37,2013-10-10 02:37:00,
2013-10-09 22:42:00,63.5,62.6,29.86,NW,315,13.7,14.0,97,0.00,OVC,,1.32,WeatherDisplay:10.37,2013-10-10 02:42:00,
2013-10-09 22:47:00,63.5,62.6,29.86,NNW,338,18.4,18.4,97,0.00,OVC,,1.32,WeatherDisplay:10.37,2013-10-10 02:47:00,
2013-10-09 22:52:00,63.5,62.9,29.87,NNW,338,18.4,18.4,98,0.00,OVC,,1.32,WeatherDisplay:10.37,2013-10-10 02:52:00,
2013-10-09 22:57:00,63.5,62.9,29.87,NNE,22,19.6,19.6,98,0.00,OVC,,1.32,WeatherDisplay:10.37,2013-10-10 02:57:00,
2013-10-09 23:02:00,63.5,62.9,29.86,West,270,23.0,23.0,98,0.00,OVC,,1.32,WeatherDisplay:10.37,2013-10-10 03:02:00,
2013-10-09 23:07:00,63.5,62.9,29.87,NW,315,19.6,19.6,98,0.00,OVC,,1.32,WeatherDisplay:10.37,2013-10-10 03:07:00,
2013-10-09 23:12:00,63.5,62.9,29.87,NNW,338,20.0,20.0,98,0.00,OVC,,1.32,WeatherDisplay:10.37,2013-10-10 03:12:00,
2013-10-09 23:17:00,63.5,62.9,29.87,NNE,22,15.0,17.2,98,0.00,OVC,,1.32,WeatherDisplay:10.37,2013-10-10 03:17:00,
2013-10-09 23:22:00,63.3,62.7,29.87,West,270,15.0,15.1,98,0.00,OVC,,1.32,WeatherDisplay:10.37,2013-10-10 03:22:00,
2013-10-09 23:27:00,63.3,62.7,29.87,NNW,338,19.6,19.6,98,0.00,OVC,,1.32,WeatherDisplay:10.37,2013-10-10 03:27:00,
2013-10-09 23:32:00,63.3,62.7,29.87,NE,45,18.4,18.4,98,0.00,OVC,,1.32,WeatherDisplay:10.37,2013-10-10 03:32:00,
2013-10-09 23:37:00,63.3,62.7,29.87,North,360,17.3,17.3,98,0.00,OVC,,1.32,WeatherDisplay:10.37,2013-10-10 03:37:00,
2013-10-09 23:42:00,63.3,62.7,29.86,NW,315,19.6,19.6,98,0.00,OVC,,1.32,WeatherDisplay:10.37,2013-10-10 03:42:00,
2013-10-09 23:47:00,63.3,62.7,29.86,NW,315,14.6,14.6,98,0.00,OVC,,1.32,WeatherDisplay:10.37,2013-10-10 03:47:00,
2013-10-09 23:52:00,63.1,62.5,29.85,NW,315,17.3,17.3,98,0.00,OVC,,1.32,WeatherDisplay:10.37,2013-10-10 03:52:00,
2013-10-09 23:57:00,63.1,62.5,29.85,WNW,292,20.7,20.7,98,0.00,OVC,,1.32,WeatherDisplay:10.37,2013-10-10 03:57:00,